LOT263 EPWA-EPSC
Flight info
| Callsign | LOT263 |
|---|---|
| Flight time | 0h 57m |
| Altitude | 34000 |
| Route | LOLSI DCT DIBLO DCT INDIG DCT FORFE DCT ZAWIK |
| Aircraft | HDJT/L-SABDGRWY/H |
Departure
| Time | 2026-04-21 16:25 |
|---|---|
| Airport | Warsaw Chopin Airport (EPWA) |
Arrival
| Time | 2026-04-21 17:23 |
|---|---|
| Airport | Solidarity Szczecin–Goleniów Airport (EPSC) |
| Time | Latitude | Longitude | Altitude | Speed | Heading |
|---|---|---|---|---|---|
| 2026-04-21 15:08 | 52.16900 | 20.96918 | 333 ft | 0 kts | 276° |
| 2026-04-21 16:14 | 52.16900 | 20.96919 | 306 ft | 0 kts | 276° |
| 2026-04-21 16:14 | 52.16900 | 20.96918 | 306 ft | 0 kts | 276° |
| 2026-04-21 16:15 | 52.16900 | 20.96917 | 306 ft | 1 kts | 276° |
| 2026-04-21 16:15 | 52.16901 | 20.96907 | 304 ft | 3 kts | 275° |
| 2026-04-21 16:15 | 52.16873 | 20.96855 | 333 ft | 8 kts | 167° |
| 2026-04-21 16:15 | 52.16806 | 20.96905 | 333 ft | 13 kts | 152° |
| 2026-04-21 16:16 | 52.16719 | 20.96982 | 333 ft | 15 kts | 153° |
| 2026-04-21 16:16 | 52.16662 | 20.97055 | 333 ft | 16 kts | 125° |
| 2026-04-21 16:16 | 52.16615 | 20.97226 | 331 ft | 17 kts | 113° |
| 2026-04-21 16:16 | 52.16566 | 20.97403 | 332 ft | 18 kts | 114° |
| 2026-04-21 16:17 | 52.16512 | 20.97593 | 332 ft | 19 kts | 114° |
| 2026-04-21 16:17 | 52.16473 | 20.97732 | 331 ft | 12 kts | 115° |
| 2026-04-21 16:17 | 52.16416 | 20.97806 | 333 ft | 12 kts | 200° |
| 2026-04-21 16:17 | 52.16374 | 20.97774 | 334 ft | 0 kts | 205° |
| 2026-04-21 16:23 | 52.16361 | 20.97764 | 333 ft | 8 kts | 205° |
| 2026-04-21 16:23 | 52.16304 | 20.97708 | 333 ft | 6 kts | 254° |
| 2026-04-21 16:23 | 52.16303 | 20.97676 | 333 ft | 0 kts | 294° |
| 2026-04-21 16:24 | 52.16315 | 20.97634 | 333 ft | 26 kts | 295° |
| 2026-04-21 16:24 | 52.16509 | 20.96948 | 330 ft | 105 kts | 295° |
| 2026-04-21 16:25 | 52.16847 | 20.95683 | 814 ft | 127 kts | 297° |
| 2026-04-21 16:25 | 52.17252 | 20.94100 | 1197 ft | 174 kts | 297° |
| 2026-04-21 16:25 | 52.17745 | 20.92117 | 1548 ft | 202 kts | 296° |
| 2026-04-21 16:25 | 52.18290 | 20.89853 | 1884 ft | 221 kts | 294° |
| 2026-04-21 16:26 | 52.18841 | 20.87461 | 2184 ft | 229 kts | 294° |
| 2026-04-21 16:26 | 52.19391 | 20.84982 | 2477 ft | 236 kts | 293° |
| 2026-04-21 16:26 | 52.19898 | 20.82407 | 2764 ft | 243 kts | 283° |
| 2026-04-21 16:26 | 52.19880 | 20.79621 | 3092 ft | 248 kts | 265° |
| 2026-04-21 16:27 | 52.19650 | 20.76888 | 3550 ft | 245 kts | 264° |
| 2026-04-21 16:27 | 52.19413 | 20.74253 | 4011 ft | 227 kts | 264° |
| 2026-04-21 16:27 | 52.19172 | 20.71694 | 4463 ft | 231 kts | 263° |
| 2026-04-21 16:27 | 52.18918 | 20.69112 | 4929 ft | 229 kts | 263° |
| 2026-04-21 16:28 | 52.18657 | 20.66536 | 5398 ft | 231 kts | 263° |
| 2026-04-21 16:28 | 52.18392 | 20.63944 | 5868 ft | 233 kts | 263° |
| 2026-04-21 16:28 | 52.18120 | 20.61344 | 6341 ft | 233 kts | 262° |
| 2026-04-21 16:28 | 52.17846 | 20.58725 | 6802 ft | 236 kts | 263° |
| 2026-04-21 16:29 | 52.17569 | 20.56081 | 7256 ft | 238 kts | 263° |
| 2026-04-21 16:29 | 52.17287 | 20.53406 | 7718 ft | 241 kts | 262° |
| 2026-04-21 16:29 | 52.16999 | 20.50706 | 8187 ft | 243 kts | 262° |
| 2026-04-21 16:29 | 52.16712 | 20.48024 | 8652 ft | 245 kts | 262° |
| 2026-04-21 16:30 | 52.16415 | 20.45270 | 9133 ft | 247 kts | 262° |
| 2026-04-21 16:30 | 52.16015 | 20.42528 | 9628 ft | 251 kts | 257° |
| 2026-04-21 16:30 | 52.15678 | 20.39730 | 10106 ft | 253 kts | 267° |
| 2026-04-21 16:30 | 52.15730 | 20.36879 | 10555 ft | 251 kts | 279° |
| 2026-04-21 16:31 | 52.15950 | 20.34055 | 11006 ft | 253 kts | 278° |
| 2026-04-21 16:31 | 52.16080 | 20.31181 | 11476 ft | 255 kts | 275° |
| 2026-04-21 16:31 | 52.16166 | 20.28290 | 11934 ft | 257 kts | 275° |
| 2026-04-21 16:31 | 52.16281 | 20.25376 | 12406 ft | 258 kts | 276° |
| 2026-04-21 16:32 | 52.16406 | 20.22453 | 12884 ft | 260 kts | 276° |
| 2026-04-21 16:32 | 52.16524 | 20.19500 | 13374 ft | 262 kts | 276° |
| 2026-04-21 16:32 | 52.16635 | 20.16535 | 13868 ft | 263 kts | 276° |
| 2026-04-21 16:32 | 52.16753 | 20.13542 | 14317 ft | 265 kts | 276° |
| 2026-04-21 16:33 | 52.16870 | 20.10528 | 14765 ft | 267 kts | 276° |
| 2026-04-21 16:33 | 52.16986 | 20.07541 | 15211 ft | 269 kts | 276° |
| 2026-04-21 16:33 | 52.17100 | 20.04492 | 15671 ft | 270 kts | 276° |
| 2026-04-21 16:33 | 52.17217 | 20.01432 | 16137 ft | 272 kts | 276° |
| 2026-04-21 16:34 | 52.17333 | 19.98348 | 16613 ft | 274 kts | 276° |
| 2026-04-21 16:34 | 52.17450 | 19.95239 | 17095 ft | 275 kts | 276° |
| 2026-04-21 16:34 | 52.17565 | 19.92112 | 17583 ft | 277 kts | 276° |
| 2026-04-21 16:34 | 52.17679 | 19.88963 | 18082 ft | 280 kts | 276° |
| 2026-04-21 16:35 | 52.17798 | 19.85780 | 18561 ft | 282 kts | 276° |
| 2026-04-21 16:35 | 52.17916 | 19.82582 | 19003 ft | 283 kts | 276° |
| 2026-04-21 16:35 | 52.18029 | 19.79368 | 19440 ft | 285 kts | 276° |
| 2026-04-21 16:35 | 52.18145 | 19.76138 | 19898 ft | 287 kts | 276° |
| 2026-04-21 16:36 | 52.18096 | 19.72864 | 20358 ft | 290 kts | 271° |
| 2026-04-21 16:36 | 52.18227 | 19.69589 | 20828 ft | 290 kts | 279° |
| 2026-04-21 16:36 | 52.18336 | 19.66302 | 21297 ft | 295 kts | 264° |
| 2026-04-21 16:36 | 52.17644 | 19.63130 | 21792 ft | 301 kts | 240° |
| 2026-04-21 16:37 | 52.16510 | 19.60254 | 22295 ft | 303 kts | 238° |
| 2026-04-21 16:37 | 52.15453 | 19.57266 | 22806 ft | 305 kts | 245° |
| 2026-04-21 16:37 | 52.14663 | 19.54061 | 23316 ft | 305 kts | 256° |
| 2026-04-21 16:37 | 52.14301 | 19.50654 | 23832 ft | 306 kts | 266° |
| 2026-04-21 16:38 | 52.14127 | 19.47236 | 24299 ft | 302 kts | 268° |
| 2026-04-21 16:38 | 52.13897 | 19.43822 | 24768 ft | 306 kts | 263° |
| 2026-04-21 16:38 | 52.13534 | 19.40369 | 25254 ft | 311 kts | 262° |
| 2026-04-21 16:38 | 52.13276 | 19.36868 | 25760 ft | 312 kts | 272° |
| 2026-04-21 16:39 | 52.13517 | 19.33360 | 26278 ft | 312 kts | 286° |
| 2026-04-21 16:39 | 52.14258 | 19.30129 | 26771 ft | 298 kts | 301° |
| 2026-04-21 16:39 | 52.15292 | 19.27293 | 27220 ft | 295 kts | 304° |
| 2026-04-21 16:39 | 52.16345 | 19.24386 | 27699 ft | 302 kts | 301° |
| 2026-04-21 16:40 | 52.17322 | 19.21332 | 28199 ft | 306 kts | 300° |
| 2026-04-21 16:40 | 52.18307 | 19.18238 | 28727 ft | 308 kts | 301° |
| 2026-04-21 16:40 | 52.19334 | 19.15153 | 29266 ft | 310 kts | 301° |
| 2026-04-21 16:40 | 52.20369 | 19.12047 | 29808 ft | 313 kts | 301° |
| 2026-04-21 16:41 | 52.21206 | 19.08730 | 30326 ft | 319 kts | 288° |
| 2026-04-21 16:41 | 52.21769 | 19.05207 | 30796 ft | 322 kts | 287° |
| 2026-04-21 16:41 | 52.22438 | 19.01727 | 31263 ft | 322 kts | 294° |
| 2026-04-21 16:41 | 52.23431 | 18.98467 | 31738 ft | 320 kts | 303° |
| 2026-04-21 16:42 | 52.24656 | 18.95437 | 32213 ft | 321 kts | 304° |
| 2026-04-21 16:42 | 52.25827 | 18.92338 | 32691 ft | 321 kts | 304° |
| 2026-04-21 16:42 | 52.27015 | 18.89252 | 33172 ft | 321 kts | 305° |
| 2026-04-21 16:42 | 52.28207 | 18.86160 | 33626 ft | 322 kts | 305° |
| 2026-04-21 16:43 | 52.29390 | 18.83002 | 33918 ft | 329 kts | 300° |
| 2026-04-21 16:43 | 52.30236 | 18.79547 | 34158 ft | 339 kts | 288° |
| 2026-04-21 16:43 | 52.30629 | 18.75666 | 34160 ft | 355 kts | 275° |
| 2026-04-21 16:43 | 52.30501 | 18.71573 | 34177 ft | 368 kts | 263° |
| 2026-04-21 16:44 | 52.29838 | 18.67463 | 34186 ft | 381 kts | 251° |
| 2026-04-21 16:44 | 52.28654 | 18.63533 | 34182 ft | 391 kts | 239° |
| 2026-04-21 16:44 | 52.27098 | 18.59822 | 34184 ft | 400 kts | 234° |
| 2026-04-21 16:45 | 52.23641 | 18.52515 | 34179 ft | 413 kts | 232° |
| 2026-04-21 16:45 | 52.20022 | 18.45093 | 34179 ft | 421 kts | 232° |
| 2026-04-21 16:46 | 52.16350 | 18.37593 | 34186 ft | 424 kts | 232° |
| 2026-04-21 16:46 | 52.12662 | 18.30070 | 34182 ft | 425 kts | 232° |
| 2026-04-21 16:47 | 52.08996 | 18.22606 | 34188 ft | 425 kts | 232° |
| 2026-04-21 16:47 | 52.05302 | 18.15089 | 34187 ft | 425 kts | 232° |
| 2026-04-21 16:48 | 52.01612 | 18.07596 | 34186 ft | 425 kts | 232° |
| 2026-04-21 16:48 | 51.97928 | 18.00151 | 34190 ft | 421 kts | 232° |
| 2026-04-21 16:49 | 51.94340 | 17.92609 | 34186 ft | 423 kts | 239° |
| 2026-04-21 16:49 | 51.92086 | 17.83882 | 34190 ft | 420 kts | 258° |
| 2026-04-21 16:49 | 51.91671 | 17.79208 | 34192 ft | 418 kts | 269° |
| 2026-04-21 16:50 | 51.91782 | 17.74527 | 34193 ft | 416 kts | 279° |
| 2026-04-21 16:50 | 51.93534 | 17.65684 | 34195 ft | 412 kts | 300° |
| 2026-04-21 16:50 | 51.95117 | 17.61828 | 34193 ft | 410 kts | 311° |
| 2026-04-21 16:51 | 51.97094 | 17.58507 | 34198 ft | 408 kts | 320° |
| 2026-04-21 16:51 | 52.01474 | 17.52784 | 34195 ft | 407 kts | 324° |
| 2026-04-21 16:52 | 52.05811 | 17.47467 | 34198 ft | 407 kts | 325° |
| 2026-04-21 16:52 | 52.10350 | 17.41962 | 34199 ft | 406 kts | 325° |
| 2026-04-21 16:53 | 52.14839 | 17.36514 | 34193 ft | 388 kts | 325° |
| 2026-04-21 16:53 | 52.16954 | 17.33933 | 34186 ft | 374 kts | 325° |
| 2026-04-21 16:53 | 52.19019 | 17.31403 | 34182 ft | 372 kts | 325° |
| 2026-04-21 16:54 | 52.23224 | 17.26254 | 34203 ft | 382 kts | 325° |
| 2026-04-21 16:54 | 52.27479 | 17.21039 | 34210 ft | 381 kts | 325° |
| 2026-04-21 16:55 | 52.31716 | 17.15848 | 34208 ft | 380 kts | 325° |
| 2026-04-21 16:55 | 52.35928 | 17.10685 | 34209 ft | 381 kts | 325° |
| 2026-04-21 16:56 | 52.40171 | 17.05476 | 34211 ft | 381 kts | 325° |
| 2026-04-21 16:56 | 52.44418 | 17.00259 | 34214 ft | 380 kts | 325° |
| 2026-04-21 16:57 | 52.48626 | 16.95071 | 34212 ft | 381 kts | 324° |
| 2026-04-21 16:57 | 52.50758 | 16.92436 | 33956 ft | 386 kts | 324° |
| 2026-04-21 16:57 | 52.52915 | 16.89774 | 33456 ft | 389 kts | 324° |
| 2026-04-21 16:57 | 52.55073 | 16.87101 | 32997 ft | 385 kts | 325° |
| 2026-04-21 16:58 | 52.57209 | 16.84446 | 32411 ft | 384 kts | 325° |
| 2026-04-21 16:58 | 52.59293 | 16.81849 | 31775 ft | 374 kts | 325° |
| 2026-04-21 16:58 | 52.61347 | 16.79277 | 31140 ft | 368 kts | 325° |
| 2026-04-21 16:58 | 52.63379 | 16.76718 | 30520 ft | 369 kts | 325° |
| 2026-04-21 16:59 | 52.65424 | 16.74133 | 29836 ft | 371 kts | 325° |
| 2026-04-21 16:59 | 52.67481 | 16.71523 | 29123 ft | 373 kts | 324° |
| 2026-04-21 16:59 | 52.69533 | 16.68920 | 28435 ft | 374 kts | 325° |
| 2026-04-21 16:59 | 52.71607 | 16.66301 | 27746 ft | 376 kts | 325° |
| 2026-04-21 17:00 | 52.73687 | 16.63678 | 27082 ft | 377 kts | 325° |
| 2026-04-21 17:00 | 52.75778 | 16.61034 | 26420 ft | 378 kts | 325° |
| 2026-04-21 17:00 | 52.77161 | 16.59263 | 26010 ft | 380 kts | 323° |
| 2026-04-21 17:00 | 52.79628 | 16.55095 | 25181 ft | 385 kts | 312° |
| 2026-04-21 17:01 | 52.81277 | 16.51632 | 24586 ft | 370 kts | 310° |
| 2026-04-21 17:01 | 52.82826 | 16.48197 | 24007 ft | 371 kts | 309° |
| 2026-04-21 17:01 | 52.84301 | 16.44865 | 23333 ft | 351 kts | 309° |
| 2026-04-21 17:01 | 52.85735 | 16.41600 | 22636 ft | 354 kts | 309° |
| 2026-04-21 17:02 | 52.87142 | 16.38384 | 21945 ft | 335 kts | 309° |
| 2026-04-21 17:02 | 52.88479 | 16.35305 | 21266 ft | 325 kts | 309° |
| 2026-04-21 17:02 | 52.89808 | 16.32290 | 20655 ft | 321 kts | 310° |
| 2026-04-21 17:02 | 52.91152 | 16.29359 | 20220 ft | 319 kts | 310° |
| 2026-04-21 17:03 | 52.92504 | 16.26440 | 19796 ft | 320 kts | 310° |
| 2026-04-21 17:03 | 52.93859 | 16.23519 | 19374 ft | 318 kts | 310° |
| 2026-04-21 17:03 | 52.94745 | 16.21606 | 19097 ft | 311 kts | 310° |
| 2026-04-21 17:03 | 52.96022 | 16.18837 | 18754 ft | 296 kts | 310° |
| 2026-04-21 17:04 | 52.97692 | 16.15213 | 18340 ft | 301 kts | 310° |
| 2026-04-21 17:04 | 52.98961 | 16.12464 | 18003 ft | 299 kts | 311° |
| 2026-04-21 17:04 | 52.99800 | 16.10648 | 17784 ft | 298 kts | 311° |
| 2026-04-21 17:04 | 53.01059 | 16.07915 | 17458 ft | 297 kts | 310° |
| 2026-04-21 17:05 | 53.02317 | 16.05179 | 17135 ft | 296 kts | 310° |
| 2026-04-21 17:05 | 53.03563 | 16.02464 | 16815 ft | 295 kts | 311° |
| 2026-04-21 17:05 | 53.04806 | 15.99748 | 16491 ft | 294 kts | 310° |
| 2026-04-21 17:05 | 53.06041 | 15.97049 | 16185 ft | 290 kts | 311° |
| 2026-04-21 17:06 | 53.07221 | 15.94451 | 15865 ft | 276 kts | 310° |
| 2026-04-21 17:06 | 53.08378 | 15.91893 | 15546 ft | 278 kts | 310° |
| 2026-04-21 17:06 | 53.09540 | 15.89315 | 15240 ft | 278 kts | 311° |
| 2026-04-21 17:06 | 53.10693 | 15.86753 | 14938 ft | 273 kts | 310° |
| 2026-04-21 17:07 | 53.11799 | 15.84278 | 14638 ft | 261 kts | 310° |
| 2026-04-21 17:07 | 53.12865 | 15.81887 | 14339 ft | 262 kts | 310° |
| 2026-04-21 17:07 | 53.13951 | 15.79450 | 14043 ft | 262 kts | 310° |
| 2026-04-21 17:07 | 53.15036 | 15.77012 | 13714 ft | 256 kts | 310° |
| 2026-04-21 17:08 | 53.16059 | 15.74693 | 13410 ft | 246 kts | 310° |
| 2026-04-21 17:08 | 53.17112 | 15.72321 | 13066 ft | 257 kts | 310° |
| 2026-04-21 17:08 | 53.18162 | 15.69956 | 12741 ft | 249 kts | 310° |
| 2026-04-21 17:08 | 53.19184 | 15.67645 | 12410 ft | 247 kts | 310° |
| 2026-04-21 17:09 | 53.21622 | 15.63855 | 11788 ft | 239 kts | 329° |
| 2026-04-21 17:09 | 53.22980 | 15.62255 | 11481 ft | 238 kts | 329° |
| 2026-04-21 17:09 | 53.24336 | 15.60671 | 11172 ft | 237 kts | 329° |
| 2026-04-21 17:10 | 53.25689 | 15.59094 | 10801 ft | 236 kts | 329° |
| 2026-04-21 17:10 | 53.27015 | 15.57552 | 10432 ft | 233 kts | 329° |
| 2026-04-21 17:10 | 53.28342 | 15.56007 | 10051 ft | 232 kts | 329° |
| 2026-04-21 17:10 | 53.29568 | 15.54227 | 9642 ft | 234 kts | 316° |
| 2026-04-21 17:11 | 53.30497 | 15.51979 | 9239 ft | 238 kts | 300° |
| 2026-04-21 17:11 | 53.31112 | 15.49490 | 8855 ft | 222 kts | 294° |
| 2026-04-21 17:11 | 53.31723 | 15.47159 | 8549 ft | 220 kts | 299° |
| 2026-04-21 17:11 | 53.32418 | 15.44847 | 8271 ft | 221 kts | 300° |
| 2026-04-21 17:12 | 53.33037 | 15.42688 | 8004 ft | 220 kts | 298° |
| 2026-04-21 17:12 | 53.33692 | 15.40373 | 7719 ft | 220 kts | 298° |
| 2026-04-21 17:12 | 53.34376 | 15.38090 | 7436 ft | 217 kts | 304° |
| 2026-04-21 17:12 | 53.35178 | 15.35988 | 7155 ft | 207 kts | 307° |
| 2026-04-21 17:13 | 53.35891 | 15.34013 | 6876 ft | 205 kts | 295° |
| 2026-04-21 17:13 | 53.36505 | 15.31867 | 6593 ft | 200 kts | 309° |
| 2026-04-21 17:13 | 53.37404 | 15.30201 | 6293 ft | 182 kts | 320° |
| 2026-04-21 17:13 | 53.38263 | 15.28712 | 5982 ft | 180 kts | 316° |
| 2026-04-21 17:14 | 53.39083 | 15.27101 | 5696 ft | 179 kts | 315° |
| 2026-04-21 17:14 | 53.39844 | 15.25582 | 5392 ft | 163 kts | 315° |
| 2026-04-21 17:14 | 53.40568 | 15.24119 | 5103 ft | 165 kts | 315° |
| 2026-04-21 17:14 | 53.41303 | 15.22638 | 4813 ft | 164 kts | 315° |
| 2026-04-21 17:15 | 53.42024 | 15.21176 | 4524 ft | 159 kts | 315° |
| 2026-04-21 17:15 | 53.42693 | 15.19792 | 4259 ft | 149 kts | 315° |
| 2026-04-21 17:15 | 53.43340 | 15.18433 | 3987 ft | 149 kts | 315° |
| 2026-04-21 17:15 | 53.43973 | 15.17099 | 3787 ft | 143 kts | 314° |
| 2026-04-21 17:16 | 53.44594 | 15.15770 | 3721 ft | 149 kts | 314° |
| 2026-04-21 17:16 | 53.45215 | 15.14490 | 3556 ft | 138 kts | 319° |
| 2026-04-21 17:16 | 53.45850 | 15.13295 | 3394 ft | 130 kts | 319° |
| 2026-04-21 17:16 | 53.46420 | 15.12198 | 3213 ft | 124 kts | 319° |
| 2026-04-21 17:17 | 53.46996 | 15.11081 | 3057 ft | 126 kts | 319° |
| 2026-04-21 17:17 | 53.47569 | 15.09976 | 2896 ft | 125 kts | 319° |
| 2026-04-21 17:17 | 53.48133 | 15.08883 | 2740 ft | 126 kts | 318° |
| 2026-04-21 17:17 | 53.48696 | 15.07762 | 2583 ft | 125 kts | 316° |
| 2026-04-21 17:18 | 53.49205 | 15.06540 | 2360 ft | 127 kts | 318° |
| 2026-04-21 17:18 | 53.49787 | 15.05451 | 2043 ft | 122 kts | 324° |
| 2026-04-21 17:18 | 53.50370 | 15.04479 | 1786 ft | 116 kts | 327° |
| 2026-04-21 17:18 | 53.50974 | 15.03592 | 1524 ft | 116 kts | 328° |
| 2026-04-21 17:19 | 53.51582 | 15.02775 | 1299 ft | 111 kts | 331° |
| 2026-04-21 17:19 | 53.52177 | 15.01950 | 1025 ft | 106 kts | 326° |
| 2026-04-21 17:19 | 53.52702 | 15.01132 | 793 ft | 102 kts | 322° |
| 2026-04-21 17:19 | 53.53178 | 15.00307 | 698 ft | 100 kts | 318° |
| 2026-04-21 17:20 | 53.53640 | 14.99429 | 635 ft | 100 kts | 314° |
| 2026-04-21 17:20 | 53.54087 | 14.98490 | 524 ft | 100 kts | 317° |
| 2026-04-21 17:20 | 53.54577 | 14.97645 | 492 ft | 101 kts | 324° |
| 2026-04-21 17:20 | 53.55071 | 14.96824 | 509 ft | 100 kts | 317° |
| 2026-04-21 17:21 | 53.55529 | 14.95899 | 519 ft | 104 kts | 314° |
| 2026-04-21 17:21 | 53.55965 | 14.94935 | 465 ft | 103 kts | 318° |
| 2026-04-21 17:21 | 53.56443 | 14.94057 | 388 ft | 101 kts | 319° |
| 2026-04-21 17:21 | 53.56926 | 14.93183 | 335 ft | 101 kts | 317° |
| 2026-04-21 17:22 | 53.57390 | 14.92302 | 247 ft | 99 kts | 314° |
| 2026-04-21 17:22 | 53.57853 | 14.91404 | 173 ft | 100 kts | 317° |
| 2026-04-21 17:22 | 53.58311 | 14.90517 | 172 ft | 104 kts | 317° |
| 2026-04-21 17:22 | 53.58724 | 14.89691 | 137 ft | 80 kts | 318° |
| 2026-04-21 17:23 | 53.58965 | 14.89293 | 130 ft | 17 kts | 316° |
| 2026-04-21 17:23 | 53.59003 | 14.89224 | 129 ft | 6 kts | 311° |
| 2026-04-21 17:23 | 53.59029 | 14.89176 | 130 ft | 6 kts | 314° |
| 2026-04-21 17:23 | 53.59085 | 14.89137 | 127 ft | 13 kts | 19° |
| 2026-04-21 17:24 | 53.59130 | 14.89196 | 126 ft | 0 kts | 41° |
| 2026-04-21 17:24 | 53.59138 | 14.89208 | 126 ft | 3 kts | 41° |
| 2026-04-21 17:25 | 53.59142 | 14.89215 | 126 ft | 0 kts | 42° |
| 2026-04-21 17:25 | 53.59151 | 14.89230 | 126 ft | 4 kts | 45° |
| 2026-04-21 17:25 | 53.59185 | 14.89287 | 126 ft | 8 kts | 44° |
| 2026-04-21 17:25 | 53.59217 | 14.89344 | 127 ft | 5 kts | 50° |
| 2026-04-21 17:26 | 53.59241 | 14.89388 | 124 ft | 6 kts | 48° |
| 2026-04-21 17:26 | 53.59250 | 14.89406 | 127 ft | 0 kts | 48° |